Time;durP1;ratioP1;P1;durP2;ratioP2;P2;SDS_P1;SDS_P2;PMS_P1;PMS_P2;Temp;Humidity;BMP_temperature;BMP_pressure;BME280_temperature;BME280_humidity;BME280_pressure;Samples;Min_cycle;Max_cycle;Signal;HPM_P1;HPM_P2
2022/09/03 00:00:45;;;;;;;22.70;10.50;;;;;;;8.75;72.23;101070.98;89117;1263;81711;-60
2022/09/03 00:03:06;;;;;;;20.00;10.10;;;;;;;8.71;72.43;101074.34;89160;1263;82473;-60
2022/09/03 00:05:24;;;;;;;23.70;10.50;;;;;;;8.65;72.44;101072.98;89110;1263;95622;-60
2022/09/03 00:07:51;;;;;;;26.50;10.40;;;;;;;8.59;72.54;101071.45;89131;1263;87412;-60
2022/09/03 00:10:09;;;;;;;22.70;9.60;;;;;;;8.53;72.89;101073.00;89151;1263;94245;-59
2022/09/03 00:12:26;;;;;;;22.60;10.60;;;;;;;8.54;72.88;101070.61;89111;1263;82411;-59
2022/09/03 00:14:43;;;;;;;23.30;10.60;;;;;;;8.55;72.87;101070.95;89165;1263;81524;-61
2022/09/03 00:16:56;;;;;;;23.10;11.50;;;;;;;8.55;72.94;101076.98;89150;1263;98000;-60
2022/09/03 00:19:10;;;;;;;23.50;11.30;;;;;;;8.55;72.91;101074.92;89150;1263;87949;-61
2022/09/03 00:21:27;;;;;;;22.60;10.70;;;;;;;8.55;72.90;101075.73;89127;1263;94453;-60
2022/09/03 00:23:42;;;;;;;21.10;11.70;;;;;;;8.54;72.93;101069.73;89141;1263;79476;-59
2022/09/03 00:26:03;;;;;;;23.30;11.40;;;;;;;8.56;72.89;101071.30;89094;1263;82621;-59
2022/09/03 00:28:19;;;;;;;30.10;11.60;;;;;;;8.57;73.06;101070.79;89129;1263;97835;-60
2022/09/03 00:30:35;;;;;;;24.90;12.00;;;;;;;8.55;73.00;101067.48;89168;1262;88610;-61
2022/09/03 00:32:51;;;;;;;27.40;13.10;;;;;;;8.53;73.01;101065.02;89142;1263;93069;-60
2022/09/03 00:35:06;;;;;;;26.10;12.80;;;;;;;8.53;72.95;101068.21;89100;1263;79199;-60
2022/09/03 00:37:16;;;;;;;29.50;13.30;;;;;;;8.52;72.97;101069.33;89140;1263;81348;-62
2022/09/03 00:39:31;;;;;;;28.50;13.60;;;;;;;8.50;72.89;101066.65;89133;1263;97388;-60
2022/09/03 00:41:50;;;;;;;27.00;12.50;;;;;;;8.48;72.94;101066.88;89217;1263;88938;-60
2022/09/03 00:44:30;;;;;;;26.10;12.00;;;;;;;8.47;72.96;101067.01;89205;1262;94601;-60
2022/09/03 00:46:45;;;;;;;28.00;12.20;;;;;;;8.46;73.02;101068.60;89158;1263;82075;-60
2022/09/03 00:49:15;;;;;;;29.20;11.60;;;;;;;8.42;72.94;101066.80;89178;1262;81272;-61
2022/09/03 00:51:34;;;;;;;26.00;11.60;;;;;;;8.44;72.97;101067.55;89112;1263;97773;-60
2022/09/03 00:54:00;;;;;;;24.20;11.30;;;;;;;8.43;73.20;101066.92;89109;1263;85714;-61
2022/09/03 00:56:21;;;;;;;24.00;11.30;;;;;;;8.43;73.11;101072.53;89100;1262;94758;-60
2022/09/03 00:58:56;;;;;;;24.50;11.10;;;;;;;8.41;73.05;101073.20;89137;1263;80476;-61
2022/09/03 01:01:15;;;;;;;24.10;12.20;;;;;;;8.41;72.93;101074.30;89116;1263;81806;-62
2022/09/03 01:03:37;;;;;;;23.10;10.90;;;;;;;8.38;73.09;101077.27;89104;1263;97452;-61
2022/09/03 01:06:11;;;;;;;24.00;10.60;;;;;;;8.38;72.97;101081.09;89116;1263;87589;-61
2022/09/03 01:08:49;;;;;;;21.40;9.90;;;;;;;8.43;73.20;101078.53;89135;1262;93744;-60
2022/09/03 01:11:17;;;;;;;22.60;9.20;;;;;;;8.51;73.26;101076.83;89141;1262;81269;-60
2022/09/03 01:13:41;;;;;;;20.90;8.60;;;;;;;8.59;73.14;101073.10;89122;1263;82217;-58
2022/09/03 01:16:09;;;;;;;16.90;8.80;;;;;;;8.65;73.10;101072.96;89150;1263;95654;-60
2022/09/03 01:18:30;;;;;;;16.30;7.80;;;;;;;8.71;72.96;101073.45;89112;1263;88124;-60
2022/09/03 01:20:59;;;;;;;19.10;7.90;;;;;;;8.68;73.09;101071.20;89118;1262;95027;-61
2022/09/03 01:24:10;;;;;;;16.40;6.70;;;;;;;8.68;73.18;101076.41;89159;1262;81076;-59
2022/09/03 01:26:35;;;;;;;13.50;7.00;;;;;;;8.76;72.89;101073.29;89105;1254;82459;-60
2022/09/03 01:28:59;;;;;;;14.50;6.20;;;;;;;8.72;72.95;101072.40;89181;1262;96805;-60
2022/09/03 01:31:25;;;;;;;13.10;6.00;;;;;;;8.65;72.78;101077.66;89241;1263;87795;-61
2022/09/03 01:33:45;;;;;;;10.70;5.20;;;;;;;8.61;72.92;101079.55;89177;1262;92563;-58
2022/09/03 01:36:06;;;;;;;7.80;4.70;;;;;;;8.64;72.79;101079.63;89202;1263;80416;-61
2022/09/03 01:38:27;;;;;;;7.20;3.80;;;;;;;8.66;72.77;101080.04;89216;1263;80387;-59
2022/09/03 01:40:50;;;;;;;8.90;3.70;;;;;;;8.65;72.80;101075.65;89138;1263;97318;-60
2022/09/03 01:43:35;;;;;;;6.70;3.70;;;;;;;8.62;72.92;101078.00;89176;1263;87720;-59
2022/09/03 01:45:53;;;;;;;;;;;;;;;8.64;72.85;101074.23;89148;1263;94555;-62
2022/09/03 01:48:41;;;;;;;9.60;3.30;;;;;;;8.66;72.79;101070.60;89153;1262;80117;-60
2022/09/03 01:51:03;;;;;;;8.00;3.70;;;;;;;8.70;72.86;101073.33;89042;1263;82893;-61
2022/09/03 01:53:29;;;;;;;6.90;3.20;;;;;;;8.72;72.96;101075.46;89131;1262;97869;-60
2022/09/03 01:55:56;;;;;;;6.60;2.90;;;;;;;8.74;72.76;101072.90;89151;1263;87933;-59
2022/09/03 01:58:16;;;;;;;8.00;3.20;;;;;;;8.77;73.13;101073.48;89098;1262;95474;-59
2022/09/03 02:00:32;;;;;;;7.30;3.10;;;;;;;8.76;72.94;101073.93;89125;1263;81115;-58
2022/09/03 02:02:42;;;;;;;6.70;3.10;;;;;;;8.78;72.83;101068.21;89125;1263;82769;-60
2022/09/03 02:05:06;;;;;;;7.60;2.70;;;;;;;8.81;72.67;101067.02;89166;1263;95478;-59
2022/09/03 02:07:15;;;;;;;5.10;2.80;;;;;;;8.82;72.68;101060.65;89137;1262;86973;-60
2022/09/03 02:09:25;;;;;;;7.10;3.60;;;;;;;8.80;72.55;101061.49;89194;1263;93988;-59
2022/09/03 02:11:33;;;;;;;8.00;3.10;;;;;;;8.78;72.53;101059.42;89149;1263;80330;-59
2022/09/03 02:13:48;;;;;;;5.80;2.80;;;;;;;8.75;72.50;101059.00;89175;1262;81373;-61
2022/09/03 02:16:02;;;;;;;5.40;2.80;;;;;;;8.72;72.44;101059.91;89124;1262;98021;-61
2022/09/03 02:18:18;;;;;;;7.20;3.40;;;;;;;8.65;72.47;101056.46;89113;1263;87298;-60
2022/09/03 02:20:29;;;;;;;4.40;2.80;;;;;;;8.60;72.46;101057.58;89133;1263;91847;-60
2022/09/03 02:22:39;;;;;;;7.60;3.20;;;;;;;8.58;72.36;101052.38;89187;1262;79136;-60
2022/09/03 02:24:48;;;;;;;5.10;2.90;;;;;;;8.56;72.34;101054.05;89192;1263;81187;-62
2022/09/03 02:26:58;;;;;;;4.90;2.90;;;;;;;8.49;72.51;101052.23;89208;1263;97637;-61
2022/09/03 02:33:39;;;;;;;5.50;2.90;;;;;;;8.36;72.66;101054.04;89194;1256;95927;-59
2022/09/03 02:35:51;;;;;;;7.00;4.30;;;;;;;8.31;72.66;101054.70;89018;1266;81027;-62
2022/09/03 02:38:17;;;;;;;11.00;4.50;;;;;;;8.28;72.75;101058.98;88997;1266;81562;-60
2022/09/03 02:40:26;;;;;;;10.10;4.10;;;;;;;8.29;72.97;101061.36;89038;1266;98990;-61
2022/09/03 02:42:36;;;;;;;8.10;4.30;;;;;;;8.34;72.95;101061.23;89008;1266;87606;-61
2022/09/03 02:44:50;;;;;;;8.80;4.20;;;;;;;8.32;72.97;101062.30;89047;1266;93125;-61
2022/09/03 02:47:04;;;;;;;9.50;4.20;;;;;;;8.30;72.97;101056.23;88981;1265;78468;-61
2022/09/03 02:49:13;;;;;;;7.30;3.70;;;;;;;8.31;72.92;101056.30;89029;1266;81570;-61
2022/09/03 02:51:25;;;;;;;10.20;4.10;;;;;;;8.28;72.96;101051.38;89020;1266;97267;-61
2022/09/03 02:53:35;;;;;;;6.60;3.30;;;;;;;8.25;73.03;101054.36;88989;1266;88119;-61
2022/09/03 02:55:43;;;;;;;10.30;3.60;;;;;;;8.20;72.89;101054.39;88918;1266;94186;-60
2022/09/03 02:57:55;;;;;;;7.00;3.70;;;;;;;8.17;72.97;101053.11;88976;1266;81839;-62
2022/09/03 03:00:08;;;;;;;6.60;3.50;;;;;;;8.12;73.13;101053.56;88964;1267;81570;-62
2022/09/03 03:02:19;;;;;;;7.60;3.90;;;;;;;8.08;73.18;101048.11;88981;1267;98457;-62
2022/09/03 03:04:29;;;;;;;7.70;3.50;;;;;;;8.01;73.22;101046.92;89031;1267;87704;-58
2022/09/03 03:06:38;;;;;;;8.00;4.20;;;;;;;7.95;73.14;101043.94;89038;1267;92365;-59
2022/09/03 03:08:51;;;;;;;12.10;5.30;;;;;;;7.88;73.29;101044.58;89006;1267;81607;-59
2022/09/03 03:11:01;;;;;;;12.90;5.40;;;;;;;7.85;73.32;101046.70;89022;1267;80629;-62
2022/09/03 03:13:10;;;;;;;10.80;5.50;;;;;;;7.80;73.31;101049.27;88990;1269;97756;-61
2022/09/03 03:15:24;;;;;;;11.00;5.50;;;;;;;7.75;73.44;101049.90;88955;1267;87743;-61
2022/09/03 03:17:36;;;;;;;13.40;5.20;;;;;;;7.72;73.56;101049.30;88995;1267;92347;-59
2022/09/03 03:19:48;;;;;;;10.90;4.40;;;;;;;7.67;73.56;101049.83;88992;1267;79910;-61
2022/09/03 03:21:56;;;;;;;11.90;5.20;;;;;;;7.63;73.54;101054.16;88976;1267;80302;-62
2022/09/03 03:24:07;;;;;;;13.10;6.20;;;;;;;7.58;73.60;101057.21;88957;1267;98077;-61
2022/09/03 03:26:18;;;;;;;15.90;5.40;;;;;;;7.49;73.71;101057.91;89004;1267;86425;-62
2022/09/03 03:28:27;;;;;;;16.70;5.90;;;;;;;7.43;73.72;101055.42;88951;1267;93327;-62
2022/09/03 03:30:41;;;;;;;14.80;5.70;;;;;;;7.40;73.89;101058.98;88978;1267;81578;-61
2022/09/03 03:32:53;;;;;;;14.30;5.20;;;;;;;7.38;74.03;101059.17;88963;1267;82948;-60
2022/09/03 03:35:05;;;;;;;13.30;5.40;;;;;;;7.38;74.19;101061.23;88804;1268;98276;-61
2022/09/03 03:37:16;;;;;;;12.00;5.40;;;;;;;7.36;74.17;101068.35;88844;1268;87527;-60
2022/09/03 03:39:25;;;;;;;12.00;6.10;;;;;;;7.35;74.35;101069.48;88825;1269;94945;-61
2022/09/03 03:41:38;;;;;;;12.20;5.40;;;;;;;7.35;74.35;101068.08;88796;1269;82469;-61
2022/09/03 03:43:53;;;;;;;13.80;5.70;;;;;;;7.36;74.46;101066.20;88864;1268;82012;-61
2022/09/03 03:46:04;;;;;;;18.60;6.80;;;;;;;7.40;74.43;101068.30;88819;1269;97171;-58
2022/09/03 03:48:14;;;;;;;28.00;8.20;;;;;;;7.42;74.43;101066.36;88798;1269;88264;-60
2022/09/03 03:50:26;;;;;;;25.30;8.20;;;;;;;7.42;74.61;101070.23;88862;1269;93727;-61
2022/09/03 03:52:38;;;;;;;26.60;9.30;;;;;;;7.43;74.61;101069.78;88841;1269;79841;-61
2022/09/03 03:54:53;;;;;;;28.90;10.60;;;;;;;7.43;74.77;101073.71;88872;1268;79223;-61
2022/09/03 03:57:06;;;;;;;27.30;10.60;;;;;;;7.42;74.57;101074.33;88888;1268;99242;-60
2022/09/03 03:59:16;;;;;;;29.90;10.90;;;;;;;7.42;74.73;101075.15;88823;1268;87879;-60
2022/09/03 04:01:30;;;;;;;38.10;11.10;;;;;;;7.39;74.64;101074.94;88821;1268;94232;-61
2022/09/03 04:03:40;;;;;;;29.90;9.50;;;;;;;7.37;74.79;101076.16;88850;1268;80745;-59
2022/09/03 04:06:00;;;;;;;45.80;10.70;;;;;;;7.35;74.92;101080.33;88819;1268;82364;-60
2022/09/03 04:08:12;;;;;;;27.80;8.20;;;;;;;7.36;74.93;101077.52;88850;1268;96614;-61
2022/09/03 04:10:21;;;;;;;26.70;8.30;;;;;;;7.40;74.90;101077.61;88826;1268;86582;-60
2022/09/03 04:12:32;;;;;;;20.30;7.10;;;;;;;7.42;75.01;101075.64;88790;1268;94915;-62
2022/09/03 04:14:43;;;;;;;29.10;8.10;;;;;;;7.43;74.92;101074.31;88791;1268;80726;-59
2022/09/03 04:16:55;;;;;;;23.30;7.70;;;;;;;7.45;75.00;101078.36;88804;1268;80629;-60
2022/09/03 04:19:04;;;;;;;28.30;7.80;;;;;;;7.44;75.04;101077.57;88840;1268;98377;-61
2022/09/03 04:21:20;;;;;;;19.10;6.50;;;;;;;7.50;75.20;101078.43;88784;1268;88907;-60
2022/09/03 04:23:29;;;;;;;23.00;6.90;;;;;;;7.56;75.11;101082.07;88784;1268;93850;-60
2022/09/03 04:25:40;;;;;;;19.90;6.80;;;;;;;7.62;75.11;101085.45;88818;1268;81330;-61
2022/09/03 04:27:53;;;;;;;20.60;6.50;;;;;;;7.67;75.06;101083.71;88853;1268;83015;-61
2022/09/03 04:30:02;;;;;;;25.60;8.20;;;;;;;7.78;75.00;101087.45;88819;1268;99247;-61
2022/09/03 04:34:39;;;;;;;25.30;10.00;;;;;;;7.98;75.09;101084.26;88956;1267;95503;-60
2022/09/03 04:36:49;;;;;;;37.50;11.00;;;;;;;8.06;75.04;101084.71;88974;1267;78821;-60
2022/09/03 04:39:01;;;;;;;41.60;10.50;;;;;;;8.19;75.23;101083.55;88926;1267;82354;-60
2022/09/03 04:41:12;;;;;;;39.70;10.50;;;;;;;8.44;75.20;101087.23;88952;1267;98066;-61
2022/09/03 04:43:23;;;;;;;33.40;11.90;;;;;;;8.64;75.01;101083.92;88941;1267;88313;-62
2022/09/03 04:45:33;;;;;;;47.40;12.10;;;;;;;8.73;74.81;101083.14;88949;1262;93947;-60
2022/09/03 04:47:55;;;;;;;33.30;10.30;;;;;;;8.91;74.72;101084.30;88953;1267;81805;-61
2022/09/03 04:50:11;;;;;;;35.50;9.40;;;;;;;9.08;74.60;101088.21;88961;1267;82148;-60
2022/09/03 04:52:30;;;;;;;32.40;8.60;;;;;;;9.15;74.51;101088.67;88977;1267;97660;-60
2022/09/03 04:54:43;;;;;;;27.10;6.50;;;;;;;9.24;74.18;101089.14;88965;1267;88172;-60
2022/09/03 04:56:54;;;;;;;26.70;7.30;;;;;;;9.37;74.15;101091.14;88858;1269;94166;-62
2022/09/03 04:59:05;;;;;;;33.50;7.80;;;;;;;9.47;74.02;101092.88;88912;1267;79453;-59
2022/09/03 05:01:18;;;;;;;23.50;8.10;;;;;;;9.57;73.84;101097.41;88963;1267;81681;-58
2022/09/03 05:03:27;;;;;;;15.40;7.50;;;;;;;9.65;73.58;101093.98;88968;1267;97963;-59
2022/09/03 05:05:36;;;;;;;14.00;6.60;;;;;;;9.74;73.36;101091.20;88984;1267;87488;-59
2022/09/03 05:07:45;;;;;;;17.70;8.20;;;;;;;9.79;73.21;101095.33;88849;1269;94820;-59
2022/09/03 05:09:57;;;;;;;9.80;4.70;;;;;;;9.87;73.09;101099.70;88941;1267;79445;-61
2022/09/03 05:12:08;;;;;;;7.80;3.90;;;;;;;9.91;72.94;101103.55;88976;1267;82242;-61
2022/09/03 05:14:22;;;;;;;9.80;4.00;;;;;;;9.95;72.65;101106.50;88967;1267;98486;-59
2022/09/03 05:16:37;;;;;;;6.40;3.40;;;;;;;10.06;72.55;101106.23;88984;1267;87126;-59
2022/09/03 05:18:52;;;;;;;9.00;4.10;;;;;;;10.11;72.34;101102.56;89019;1266;94049;-59
2022/09/03 05:21:11;;;;;;;11.20;4.20;;;;;;;10.22;72.26;101107.88;88967;1266;81612;-61
2022/09/03 05:23:21;;;;;;;9.90;4.40;;;;;;;10.37;72.09;101111.28;89032;1266;82380;-61
2022/09/03 05:25:32;;;;;;;8.60;4.30;;;;;;;10.52;72.02;101107.06;89049;1266;97424;-59
2022/09/03 05:27:46;;;;;;;11.80;6.60;;;;;;;11.38;71.80;101106.13;89042;1266;87179;-59
2022/09/03 05:29:59;;;;;;;9.70;5.70;;;;;;;13.13;70.65;101105.05;89023;1266;95356;-62
2022/09/03 05:32:08;;;;;;;11.10;5.80;;;;;;;15.11;69.04;101097.61;89039;1266;80303;-62
2022/09/03 05:34:17;;;;;;;16.40;8.10;;;;;;;17.06;67.05;101092.47;89082;1266;82706;-61
2022/09/03 05:36:29;;;;;;;17.30;8.50;;;;;;;18.55;64.31;101092.01;89016;1266;97757;-62
2022/09/03 05:38:40;;;;;;;45.60;19.40;;;;;;;19.74;63.00;101088.79;89044;1264;88057;-61
2022/09/03 05:40:53;;;;;;;30.90;14.40;;;;;;;20.81;61.01;101087.51;89009;1264;95329;-60
2022/09/03 05:43:04;;;;;;;18.60;9.80;;;;;;;21.47;57.05;101090.46;89028;1264;80650;-58
2022/09/03 05:45:19;;;;;;;25.10;10.80;;;;;;;21.92;57.14;101092.45;89035;1264;81996;-61
2022/09/03 05:47:28;;;;;;;18.00;8.60;;;;;;;22.87;55.61;101086.48;88980;1264;96949;-62
2022/09/03 05:49:37;;;;;;;15.20;7.10;;;;;;;23.93;54.01;101083.86;89020;1264;87464;-61
2022/09/03 05:51:48;;;;;;;10.90;5.40;;;;;;;24.51;51.76;101082.48;88956;1264;93054;-61
2022/09/03 05:53:59;;;;;;;8.90;4.70;;;;;;;24.79;49.17;101077.13;88995;1264;80209;-61
2022/09/03 05:56:11;;;;;;;23.30;11.00;;;;;;;24.94;48.91;101074.09;89005;1264;82193;-61
2022/09/03 05:58:20;;;;;;;23.90;12.20;;;;;;;25.48;47.85;101074.19;89011;1264;98373;-61
2022/09/03 06:00:32;;;;;;;23.00;11.20;;;;;;;26.06;46.49;101075.89;89040;1264;87979;-61
2022/09/03 06:02:43;;;;;;;22.40;9.80;;;;;;;26.63;45.08;101068.45;88996;1264;93606;-62
2022/09/03 06:04:51;;;;;;;18.20;9.70;;;;;;;26.83;44.81;101063.98;89018;1264;79935;-60
2022/09/03 06:07:02;;;;;;;30.60;10.50;;;;;;;27.21;43.87;101065.55;89036;1264;81237;-60
2022/09/03 06:09:16;;;;;;;40.10;10.50;;;;;;;27.37;43.43;101068.15;89077;1264;98624;-60
2022/09/03 06:11:27;;;;;;;34.10;11.00;;;;;;;27.85;43.25;101072.64;89033;1264;87247;-61
2022/09/03 06:13:42;;;;;;;38.60;11.00;;;;;;;28.29;42.16;101071.56;88516;1264;712799;-60
2022/09/03 06:15:58;;;;;;;34.90;11.60;;;;;;;28.45;41.25;101071.05;89089;1264;80894;-62
2022/09/03 06:18:10;;;;;;;52.50;14.80;;;;;;;28.73;40.47;101069.85;89055;1264;82104;-61
2022/09/03 06:20:27;;;;;;;56.10;14.30;;;;;;;28.68;39.82;101070.41;89027;1264;98135;-61
2022/09/03 06:22:37;;;;;;;45.50;16.00;;;;;;;28.62;39.26;101068.23;89044;1264;87731;-62
2022/09/03 06:24:48;;;;;;;47.90;15.60;;;;;;;27.34;38.88;101068.21;89059;1264;95203;-60
2022/09/03 06:26:58;;;;;;;32.80;14.10;;;;;;;26.23;38.79;101067.76;88983;1264;80082;-61
2022/09/03 06:29:13;;;;;;;46.60;17.20;;;;;;;25.32;38.45;101064.41;89042;1264;82959;-61
2022/09/03 06:31:24;;;;;;;55.20;21.30;;;;;;;24.23;38.81;101066.23;88961;1264;98324;-60
2022/09/03 06:33:37;;;;;;;50.30;21.90;;;;;;;23.36;39.28;101072.98;89044;1264;87344;-59
2022/09/03 06:35:48;;;;;;;47.80;24.90;;;;;;;22.26;40.16;101077.11;89023;1264;94100;-59
2022/09/03 06:37:59;;;;;;;49.80;23.30;;;;;;;21.84;40.63;101077.48;88979;1264;79456;-62
2022/09/03 06:40:19;;;;;;;46.50;22.20;;;;;;;22.03;40.54;101085.80;88994;1264;81365;-60
2022/09/03 06:42:33;;;;;;;37.50;17.80;;;;;;;21.70;40.30;101085.59;89020;1264;97448;-60
2022/09/03 06:44:44;;;;;;;36.20;16.40;;;;;;;21.11;40.63;101083.30;89004;1264;88753;-59
2022/09/03 06:46:53;;;;;;;33.40;17.00;;;;;;;20.74;41.15;101080.91;88961;1264;95409;-60
2022/09/03 06:49:08;;;;;;;36.90;17.30;;;;;;;20.48;41.52;101082.00;89017;1264;79695;-60
2022/09/03 06:51:22;;;;;;;31.20;15.30;;;;;;;19.97;42.19;101081.31;89018;1263;82275;-60
2022/09/03 06:53:38;;;;;;;32.90;13.00;;;;;;;19.75;42.44;101082.69;89034;1264;97307;-60
2022/09/03 06:55:55;;;;;;;29.50;10.80;;;;;;;19.47;43.04;101082.30;89031;1264;87349;-61
2022/09/03 06:58:03;;;;;;;36.10;11.00;;;;;;;19.20;43.49;101078.69;89021;1264;94351;-61
2022/09/03 07:00:15;;;;;;;32.10;10.40;;;;;;;19.18;43.85;101078.14;88957;1266;79875;-60
2022/09/03 07:02:26;;;;;;;52.80;13.10;;;;;;;19.25;44.36;101075.14;89006;1264;81846;-61
2022/09/03 07:04:35;;;;;;;55.00;15.20;;;;;;;20.05;44.30;101077.03;89020;1264;96961;-61
2022/09/03 07:06:49;;;;;;;66.70;23.40;;;;;;;21.47;43.32;101077.23;89022;1264;87423;-61
2022/09/03 07:09:06;;;;;;;62.80;26.20;;;;;;;22.21;42.45;101077.59;89005;1264;93929;-60
2022/09/03 07:11:21;;;;;;;64.70;27.30;;;;;;;22.55;41.32;101070.88;89029;1264;79269;-62
2022/09/03 07:13:32;;;;;;;71.80;28.90;;;;;;;22.35;41.24;101070.89;89001;1264;81027;-61
2022/09/03 07:15:44;;;;;;;53.20;20.80;;;;;;;22.19;41.76;101073.16;89050;1264;98571;-60
2022/09/03 07:17:55;;;;;;;41.30;18.30;;;;;;;22.14;41.74;101076.96;88987;1263;87748;-62
2022/09/03 07:20:08;;;;;;;37.70;16.50;;;;;;;22.46;41.13;101075.31;88997;1264;95345;-62
2022/09/03 07:22:23;;;;;;;36.10;18.00;;;;;;;23.08;41.00;101073.79;89025;1263;79899;-61
2022/09/03 07:24:33;;;;;;;43.80;21.90;;;;;;;23.76;40.39;101077.63;89026;1264;82233;-60
2022/09/03 07:26:45;;;;;;;45.30;22.30;;;;;;;23.77;39.60;101077.02;88993;1264;97297;-59
2022/09/03 07:29:00;;;;;;;48.40;23.60;;;;;;;24.19;39.58;101076.03;89013;1264;88295;-62
2022/09/03 07:31:18;;;;;;;50.60;24.40;;;;;;;24.41;39.44;101073.95;88996;1264;94863;-61
2022/09/03 07:33:30;;;;;;;43.50;21.60;;;;;;;24.47;38.95;101078.10;89027;1264;79554;-60
2022/09/03 07:35:42;;;;;;;29.60;11.70;;;;;;;24.29;38.88;101078.50;88998;1264;82193;-60
2022/09/03 07:37:59;;;;;;;33.30;11.80;;;;;;;24.48;39.08;101082.41;89042;1264;97544;-60
2022/09/03 07:40:10;;;;;;;34.60;11.30;;;;;;;25.01;38.50;101087.11;88985;1263;87821;-61
2022/09/03 07:42:34;;;;;;;22.90;9.60;;;;;;;25.10;38.12;101086.45;89033;1264;95630;-61
2022/09/03 07:44:49;;;;;;;18.60;8.90;;;;;;;25.42;37.23;101084.95;89035;1264;80190;-62
2022/09/03 07:46:59;;;;;;;19.90;8.80;;;;;;;25.83;37.59;101084.92;89018;1264;81497;-64
2022/09/03 07:49:17;;;;;;;16.80;7.50;;;;;;;26.38;37.41;101081.80;89081;1264;99146;-61
2022/09/03 07:51:30;;;;;;;11.60;5.00;;;;;;;27.32;36.79;101074.77;89036;1264;86807;-62
2022/09/03 07:53:40;;;;;;;;;;;;;;;28.50;36.11;101072.77;89064;1266;94127;-60
2022/09/03 07:55:51;;;;;;;16.40;7.80;;;;;;;29.17;35.28;101076.17;89047;1264;80472;-63
2022/09/03 07:58:02;;;;;;;19.10;9.40;;;;;;;29.83;34.86;101079.61;89061;1264;82857;-61
2022/09/03 08:00:16;;;;;;;9.40;3.40;;;;;;;30.51;33.31;101078.52;89089;1264;97999;-61
2022/09/03 08:02:28;;;;;;;7.90;2.50;;;;;;;31.01;32.40;101075.33;89032;1264;88372;-61
2022/09/03 08:04:37;;;;;;;7.70;2.60;;;;;;;31.41;31.06;101075.80;88955;1264;95648;-61
2022/09/03 08:06:54;;;;;;;7.30;2.90;;;;;;;31.73;30.51;101080.98;88997;1264;80171;-62
2022/09/03 08:09:08;;;;;;;6.60;2.20;;;;;;;31.81;30.32;101077.67;89016;1264;82117;-62
2022/09/03 08:11:20;;;;;;;9.30;3.80;;;;;;;32.11;30.41;101077.38;89004;1264;97889;-62
2022/09/03 08:13:33;;;;;;;5.30;2.60;;;;;;;32.19;29.91;101082.29;88993;1264;89646;-61
2022/09/03 08:15:43;;;;;;;6.20;2.20;;;;;;;32.24;29.14;101078.37;88993;1264;94540;-60
2022/09/03 08:17:55;;;;;;;6.90;2.50;;;;;;;32.34;28.93;101074.86;89007;1264;80658;-60
2022/09/03 08:20:07;;;;;;;6.70;2.40;;;;;;;32.42;28.99;101072.07;88982;1264;81553;-61
2022/09/03 08:22:21;;;;;;;8.20;2.30;;;;;;;31.95;28.30;101065.34;88998;1264;99009;-61
2022/09/03 08:24:32;;;;;;;6.40;2.40;;;;;;;32.52;28.33;101069.21;89030;1264;87630;-65
2022/09/03 08:26:44;;;;;;;5.10;2.30;;;;;;;32.64;27.61;101072.70;88984;1264;93676;-61
2022/09/03 08:28:59;;;;;;;4.60;2.30;;;;;;;32.70;27.28;101075.28;89021;1264;78694;-62
2022/09/03 08:31:16;;;;;;;5.10;2.10;;;;;;;32.79;26.80;101073.21;89027;1264;82893;-63
2022/09/03 08:33:37;;;;;;;3.50;1.90;;;;;;;32.64;26.04;101073.28;88936;1264;99037;-63
2022/09/03 08:35:54;;;;;;;2.80;2.00;;;;;;;32.75;25.09;101067.28;89055;1264;87935;-61
2022/09/03 08:38:07;;;;;;;5.70;2.30;;;;;;;33.02;25.13;101069.70;88977;1264;94289;-62
2022/09/03 08:40:23;;;;;;;4.30;2.00;;;;;;;33.36;24.80;101063.28;89054;1264;80390;-63
2022/09/03 08:42:57;;;;;;;5.60;2.00;;;;;;;33.35;25.00;101064.93;89015;1264;82253;-63
2022/09/03 08:45:15;;;;;;;2.40;1.90;;;;;;;33.02;24.29;101063.51;89036;1264;99118;-63
2022/09/03 08:47:30;;;;;;;3.30;1.80;;;;;;;33.42;24.52;101061.98;89012;1264;88148;-63
2022/09/03 08:49:53;;;;;;;3.50;1.90;;;;;;;33.36;23.30;101059.01;89006;1264;94626;-62
2022/09/03 08:52:13;;;;;;;2.20;2.00;;;;;;;32.73;23.93;101056.98;89002;1264;80647;-61
2022/09/03 08:54:32;;;;;;;3.50;2.00;;;;;;;33.12;23.06;101055.39;88985;1264;82252;-65
2022/09/03 08:56:47;;;;;;;2.30;1.60;;;;;;;33.27;22.76;101053.27;89132;1263;98192;-65
2022/09/03 08:59:05;;;;;;;2.80;1.90;;;;;;;33.22;22.41;101049.44;89414;1263;88545;-62
2022/09/03 09:01:32;;;;;;;3.80;1.80;;;;;;;33.15;22.69;101051.11;89024;1263;94207;-65
2022/09/03 09:04:04;;;;;;;4.80;1.90;;;;;;;33.15;22.82;101051.08;89083;1263;78771;-64
2022/09/03 09:06:31;;;;;;;4.20;2.00;;;;;;;33.05;22.98;101043.76;89125;1263;82131;-64
2022/09/03 09:08:57;;;;;;;3.80;1.70;;;;;;;33.12;23.31;101037.86;89076;1265;98551;-64
2022/09/03 09:11:25;;;;;;;4.70;1.70;;;;;;;33.08;23.17;101039.26;89136;1263;88869;-64
2022/09/03 09:14:00;;;;;;;3.50;2.20;;;;;;;32.95;22.17;101047.79;89178;1263;94702;-60
2022/09/03 09:16:26;;;;;;;3.50;1.80;;;;;;;32.95;22.09;101038.22;89165;1263;80105;-64
2022/09/03 09:18:59;;;;;;;3.00;1.70;;;;;;;32.55;22.10;101038.69;89183;1263;81475;-64
2022/09/03 09:21:29;;;;;;;6.60;2.30;;;;;;;32.28;21.52;101040.62;89048;1263;96416;-64
2022/09/03 09:23:49;;;;;;;7.80;2.40;;;;;;;31.93;21.89;101042.30;89064;1263;89100;-63
2022/09/03 09:26:07;;;;;;;4.90;1.80;;;;;;;31.33;21.53;101040.00;89125;1263;93295;-62
2022/09/03 09:28:23;;;;;;;2.60;1.80;;;;;;;31.13;22.01;101040.70;89138;1263;80249;-62
2022/09/03 09:30:36;;;;;;;3.20;1.80;;;;;;;30.63;22.50;101045.95;89159;1263;82889;-63
2022/09/03 09:32:50;;;;;;;3.70;1.80;;;;;;;29.95;23.01;101046.02;89163;1263;97264;-63
2022/09/03 09:35:04;;;;;;;3.40;1.90;;;;;;;29.37;23.28;101044.04;89116;1263;86292;-62
2022/09/03 09:37:17;;;;;;;8.80;2.80;;;;;;;28.93;23.62;101039.95;89133;1263;93546;-64
2022/09/03 09:39:29;;;;;;;5.90;2.20;;;;;;;28.35;23.61;101041.66;89166;1263;80728;-62
2022/09/03 09:42:04;;;;;;;4.50;2.30;;;;;;;28.01;24.45;101037.37;89100;1263;81642;-62
2022/09/03 09:44:28;;;;;;;6.60;2.60;;;;;;;27.78;24.51;101042.40;89133;1263;98679;-62
2022/09/03 09:46:41;;;;;;;4.10;1.50;;;;;;;27.19;24.38;101043.02;89138;1263;88090;-63
2022/09/03 09:48:58;;;;;;;4.40;2.10;;;;;;;26.77;24.99;101039.36;89135;1263;93676;-61
2022/09/03 09:51:19;;;;;;;3.00;1.40;;;;;;;26.27;24.96;101046.49;89133;1263;78754;-62
2022/09/03 09:53:33;;;;;;;2.80;1.50;;;;;;;25.98;26.03;101044.59;89133;1263;81722;-63
2022/09/03 09:55:56;;;;;;;6.70;1.60;;;;;;;25.72;25.99;101042.55;89107;1263;97793;-61
2022/09/03 09:58:12;;;;;;;4.70;1.60;;;;;;;25.34;26.40;101041.97;89079;1263;88020;-59
2022/09/03 10:00:24;;;;;;;3.90;1.60;;;;;;;25.18;26.59;101041.13;89080;1262;95921;-60
2022/09/03 10:02:39;;;;;;;2.90;1.70;;;;;;;25.09;27.04;101038.99;89064;1263;80059;-59
2022/09/03 10:04:49;;;;;;;2.60;1.60;;;;;;;24.96;26.91;101035.77;88993;1265;81194;-59
2022/09/03 10:07:18;;;;;;;3.00;1.40;;;;;;;25.01;27.41;101038.89;89091;1263;97067;-60
2022/09/03 10:09:32;;;;;;;2.50;1.50;;;;;;;25.00;27.47;101049.19;89114;1263;87005;-59
2022/09/03 10:11:44;;;;;;;4.10;2.10;;;;;;;24.92;27.41;101044.55;89104;1263;92671;-60
2022/09/03 10:13:57;;;;;;;7.20;2.90;;;;;;;24.91;27.60;101048.30;89105;1263;79773;-59
2022/09/03 10:16:21;;;;;;;3.70;1.80;;;;;;;24.70;27.55;101043.22;89109;1263;81408;-60
2022/09/03 10:18:35;;;;;;;;;;;;;;;24.71;28.18;101035.77;89102;1263;97959;-60
2022/09/03 10:20:55;;;;;;;3.20;1.40;;;;;;;24.79;27.91;101035.55;89147;1263;87428;-60
2022/09/03 10:23:16;;;;;;;3.20;1.40;;;;;;;24.74;27.80;101036.05;89168;1263;95214;-60
2022/09/03 10:25:32;;;;;;;3.00;1.30;;;;;;;24.63;27.74;101029.53;89176;1263;80846;-61
2022/09/03 10:27:41;;;;;;;2.50;1.40;;;;;;;24.52;27.94;101030.23;89202;1263;81781;-59
2022/09/03 10:29:52;;;;;;;1.70;1.40;;;;;;;24.36;27.73;101023.36;89083;1263;97535;-59
2022/09/03 10:32:22;;;;;;;2.70;1.50;;;;;;;24.29;28.35;101019.23;89139;1263;88653;-61
2022/09/03 10:34:42;;;;;;;3.80;1.30;;;;;;;24.36;27.86;101019.45;89151;1263;94605;-61